Time;durP1;ratioP1;P1;durP2;ratioP2;P2;SDS_P1;SDS_P2;PMS_P1;PMS_P2;Temp;Humidity;BMP_temperature;BMP_pressure;BME280_temperature;BME280_humidity;BME280_pressure;Samples;Min_cycle;Max_cycle;Signal;HPM_P1;HPM_P2
2022/11/04 00:00:23;;;;;;;;;;;;;;;;;;941288;27;19954;-78
2022/11/04 00:00:53;;;;;;;;;;;;;;;;;;941301;27;19926;-75
2022/11/04 00:01:27;;;;;;;;;;;;;;;;;;941410;27;20227;-75
2022/11/04 00:01:58;;;;;;;;;;;;;;;;;;941489;27;19907;-75
2022/11/04 00:02:28;;;;;;;;;;;;;;;;;;941332;27;19904;-74
2022/11/04 00:03:02;;;;;;;;;;;;;;;;;;941190;27;19946;-75
2022/11/04 00:03:32;;;;;;;;;;;;;;;;;;941120;27;19919;-75
2022/11/04 00:04:03;;;;;;;;;;;;;;;;;;941181;27;19954;-75
2022/11/04 00:04:36;;;;;;;;;;;;;;;;;;941369;27;19984;-78
2022/11/04 00:05:07;;;;;;;;;;;;;;;;;;941456;27;19907;-75
2022/11/04 00:05:38;;;;;;;;;;;;;;;;;;941346;27;19915;-75
2022/11/04 00:06:11;;;;;;;;;;;;;;;;;;941042;27;19907;-75
2022/11/04 00:06:44;;;;;;;;;;;;;;;;;;941134;27;20241;-75
2022/11/04 00:08:27;;;;;;;;;;;;;;;;;;940384;27;19927;-75
2022/11/04 00:08:58;;;;;;;;;;;;;;;;;;940555;27;19925;-76
2022/11/04 00:09:31;;;;;;;;;;;;;;;;;;940897;27;20172;-77
2022/11/04 00:10:02;;;;;;;;;;;;;;;;;;941110;27;19903;-76
2022/11/04 00:12:52;;;;;;;;;;;;;;;;;;941487;27;19903;-77
2022/11/04 00:13:22;;;;;;;;;;;;;;;;;;941410;27;19907;-77
2022/11/04 00:13:56;;;;;;;;;;;;;;;;;;941177;27;19907;-77
2022/11/04 00:14:29;;;;;;;;;;;;;;;;;;941353;27;19907;-76
2022/11/04 00:17:18;;;;;;;;;;;;;;;;;;941165;27;19953;-77
2022/11/04 00:17:25;;;;;;;;;;;;;;;;;;941101;27;19919;-77
2022/11/04 00:17:57;;;;;;;;;;;;;;;;;;941406;27;20196;-76
2022/11/04 00:18:27;;;;;;;;;;;;;;;;;;941368;27;19912;-78
2022/11/04 00:18:58;;;;;;;;;;;;;;;;;;941230;27;19904;-77
2022/11/04 00:28:41;;;;;;;;;;;;;;;;;;941418;27;19907;-76
2022/11/04 00:29:00;;;;;;;;;;;;;;;;;;941158;27;19914;-76
2022/11/04 00:29:31;;;;;;;;;;;;;;;;;;941290;27;19915;-77
2022/11/04 00:30:03;;;;;;;;;;;;;;;;;;941219;27;19912;-77
2022/11/04 00:30:36;;;;;;;;;;;;;;;;;;940900;27;19967;-77
2022/11/04 00:33:24;;;;;;;;;;;;;;;;;;941113;27;19959;-75
2022/11/04 00:33:56;;;;;;;;;;;;;;;;;;941121;27;19918;-75
2022/11/04 00:34:29;;;;;;;;;;;;;;;;;;940981;27;19919;-76
2022/11/04 00:35:00;;;;;;;;;;;;;;;;;;941271;27;19918;-76
2022/11/04 00:35:31;;;;;;;;;;;;;;;;;;941002;27;20498;-77
2022/11/04 00:36:04;;;;;;;;;;;;;;;;;;941261;27;19907;-75
2022/11/04 00:36:34;;;;;;;;;;;;;;;;;;941062;27;19912;-75
2022/11/04 00:37:08;;;;;;;;;;;;;;;;;;940962;27;19907;-76
2022/11/04 00:37:39;;;;;;;;;;;;;;;;;;940868;27;19903;-75
2022/11/04 00:38:12;;;;;;;;;;;;;;;;;;941082;27;19930;-75
2022/11/04 00:38:43;;;;;;;;;;;;;;;;;;941121;27;19911;-75
2022/11/04 00:39:14;;;;;;;;;;;;;;;;;;941376;27;19918;-77
2022/11/04 00:39:47;;;;;;;;;;;;;;;;;;941314;27;19944;-77
2022/11/04 00:40:18;;;;;;;;;;;;;;;;;;941114;27;19908;-76
2022/11/04 00:40:48;;;;;;;;;;;;;;;;;;941141;27;19908;-76
2022/11/04 00:41:28;;;;;;;;;;;;;;;;;;941113;27;19907;-78
2022/11/04 00:41:59;;;;;;;;;;;;;;;;;;941200;27;19918;-76
2022/11/04 00:42:30;;;;;;;;;;;;;;;;;;941241;27;19954;-77
2022/11/04 00:43:03;;;;;;;;;;;;;;;;;;941288;27;20140;-79
2022/11/04 00:43:34;;;;;;;;;;;;;;;;;;941087;27;20228;-77
2022/11/04 00:44:04;;;;;;;;;;;;;;;;;;941183;27;19908;-77
2022/11/04 00:44:38;;;;;;;;;;;;;;;;;;941224;27;19960;-76
2022/11/04 00:45:09;;;;;;;;;;;;;;;;;;940786;27;19918;-77
2022/11/04 00:45:40;;;;;;;;;;;;;;;;;;941203;27;19903;-77
2022/11/04 00:46:13;;;;;;;;;;;;;;;;;;941273;27;20216;-76
2022/11/04 00:46:44;;;;;;;;;;;;;;;;;;941264;27;19922;-76
2022/11/04 00:47:15;;;;;;;;;;;;;;;;;;941150;27;19919;-77
2022/11/04 00:47:48;;;;;;;;;;;;;;;;;;940970;27;19908;-75
2022/11/04 00:48:19;;;;;;;;;;;;;;;;;;941126;27;19907;-76
2022/11/04 00:48:49;;;;;;;;;;;;;;;;;;941008;27;19911;-76
2022/11/04 00:49:23;;;;;;;;;;;;;;;;;;941117;27;19915;-77
2022/11/04 00:49:53;;;;;;;;;;;;;;;;;;941187;27;19922;-76
2022/11/04 00:50:24;;;;;;;;;;;;;;;;;;941215;27;19923;-75
2022/11/04 00:50:57;;;;;;;;;;;;;;;;;;940967;27;19921;-76
2022/11/04 00:51:28;;;;;;;;;;;;;;;;;;941217;27;19908;-75
2022/11/04 00:51:58;;;;;;;;;;;;;;;;;;941006;27;19911;-77
2022/11/04 00:52:32;;;;;;;;;;;;;;;;;;941000;27;19915;-76
2022/11/04 00:53:05;;;;;;;;;;;;;;;;;;940905;27;19936;-76
2022/11/04 00:53:36;;;;;;;;;;;;;;;;;;941124;27;20144;-77
2022/11/04 00:54:07;;;;;;;;;;;;;;;;;;941031;27;19908;-77
2022/11/04 00:54:40;;;;;;;;;;;;;;;;;;941131;27;19907;-76
2022/11/04 00:55:10;;;;;;;;;;;;;;;;;;941008;27;19907;-78
2022/11/04 00:55:41;;;;;;;;;;;;;;;;;;940911;27;19911;-77
2022/11/04 00:56:15;;;;;;;;;;;;;;;;;;941063;27;19911;-78
2022/11/04 00:56:47;;;;;;;;;;;;;;;;;;941084;27;19908;-75
2022/11/04 00:57:18;;;;;;;;;;;;;;;;;;941067;27;19907;-76
2022/11/04 00:57:51;;;;;;;;;;;;;;;;;;940957;27;19918;-76
2022/11/04 00:58:21;;;;;;;;;;;;;;;;;;940981;27;19903;-75
2022/11/04 00:58:52;;;;;;;;;;;;;;;;;;941086;27;20140;-76
2022/11/04 00:59:25;;;;;;;;;;;;;;;;;;941172;27;19911;-76
2022/11/04 00:59:56;;;;;;;;;;;;;;;;;;941012;27;19914;-76
2022/11/04 01:00:27;;;;;;;;;;;;;;;;;;941211;27;19922;-77
2022/11/04 01:01:00;;;;;;;;;;;;;;;;;;941147;27;19964;-76
2022/11/04 01:01:30;;;;;;;;;;;;;;;;;;941232;27;19907;-76
2022/11/04 01:02:01;;;;;;;;;;;;;;;;;;941053;27;20251;-76
2022/11/04 01:02:34;;;;;;;;;;;;;;;;;;941081;27;19908;-78
2022/11/04 01:03:05;;;;;;;;;;;;;;;;;;941723;27;19915;-76
2022/11/04 01:03:36;;;;;;;;;;;;;;;;;;941838;27;19908;-78
2022/11/04 01:04:09;;;;;;;;;;;;;;;;;;941586;27;19930;-78
2022/11/04 01:04:40;;;;;;;;;;;;;;;;;;941749;27;20234;-78
2022/11/04 01:05:10;;;;;;;;;;;;;;;;;;941551;27;19927;-78
2022/11/04 01:05:44;;;;;;;;;;;;;;;;;;941686;27;20289;-79
2022/11/04 01:06:14;;;;;;;;;;;;;;;;;;941525;27;19904;-78
2022/11/04 01:06:45;;;;;;;;;;;;;;;;;;941659;27;19907;-78
2022/11/04 01:07:19;;;;;;;;;;;;;;;;;;941608;27;19931;-78
2022/11/04 01:07:52;;;;;;;;;;;;;;;;;;941686;27;20113;-78
2022/11/04 01:08:23;;;;;;;;;;;;;;;;;;941583;27;19915;-79
2022/11/04 01:09:00;;;;;;;;;;;;;;;;;;941402;27;19919;-77
2022/11/04 01:09:30;;;;;;;;;;;;;;;;;;941491;27;19904;-77
2022/11/04 01:10:01;;;;;;;;;;;;;;;;;;941546;27;20216;-78
2022/11/04 01:10:43;;;;;;;;;;;;;;;;;;941704;27;19919;-78
2022/11/04 01:11:14;;;;;;;;;;;;;;;;;;941479;27;20280;-78
2022/11/04 01:11:45;;;;;;;;;;;;;;;;;;941620;27;19971;-79
2022/11/04 01:12:15;;;;;;;;;;;;;;;;;;941651;27;19975;-78
2022/11/04 01:12:49;;;;;;;;;;;;;;;;;;941749;27;19915;-78
2022/11/04 01:13:19;;;;;;;;;;;;;;;;;;941384;27;19918;-76
2022/11/04 01:13:50;;;;;;;;;;;;;;;;;;941438;27;20247;-78
2022/11/04 01:14:24;;;;;;;;;;;;;;;;;;940919;27;19979;-77
2022/11/04 01:14:54;;;;;;;;;;;;;;;;;;941298;27;19907;-78
2022/11/04 01:15:25;;;;;;;;;;;;;;;;;;941096;27;19907;-77
2022/11/04 01:15:59;;;;;;;;;;;;;;;;;;941128;27;20144;-77
2022/11/04 01:16:30;;;;;;;;;;;;;;;;;;941157;27;19907;-77
2022/11/04 01:17:01;;;;;;;;;;;;;;;;;;941228;27;20144;-77
2022/11/04 01:17:34;;;;;;;;;;;;;;;;;;941270;27;19967;-77
2022/11/04 01:18:05;;;;;;;;;;;;;;;;;;941376;27;19908;-76
2022/11/04 01:18:36;;;;;;;;;;;;;;;;;;941239;27;19916;-78
2022/11/04 01:19:09;;;;;;;;;;;;;;;;;;941136;27;19915;-78
2022/11/04 01:19:40;;;;;;;;;;;;;;;;;;941241;27;19907;-79
2022/11/04 01:20:12;;;;;;;;;;;;;;;;;;941189;27;19918;-78
2022/11/04 01:20:46;;;;;;;;;;;;;;;;;;941106;27;20028;-77
2022/11/04 01:21:16;;;;;;;;;;;;;;;;;;941142;27;20163;-77
2022/11/04 01:21:49;;;;;;;;;;;;;;;;;;941358;27;19907;-77
2022/11/04 01:22:23;;;;;;;;;;;;;;;;;;941032;27;19964;-77
2022/11/04 01:22:57;;;;;;;;;;;;;;;;;;941087;27;19904;-79
2022/11/04 01:23:27;;;;;;;;;;;;;;;;;;941087;27;19904;-76
2022/11/04 01:24:01;;;;;;;;;;;;;;;;;;941257;27;19914;-77
2022/11/04 01:24:32;;;;;;;;;;;;;;;;;;941103;27;20174;-77
2022/11/04 01:25:03;;;;;;;;;;;;;;;;;;941411;27;19907;-75
2022/11/04 01:25:36;;;;;;;;;;;;;;;;;;941107;27;20191;-76
2022/11/04 01:26:07;;;;;;;;;;;;;;;;;;941130;27;19903;-77
2022/11/04 01:26:38;;;;;;;;;;;;;;;;;;941106;27;19918;-78
2022/11/04 01:27:11;;;;;;;;;;;;;;;;;;941312;27;19933;-77
2022/11/04 01:27:41;;;;;;;;;;;;;;;;;;941071;27;19954;-77
2022/11/04 01:28:12;;;;;;;;;;;;;;;;;;941202;27;19907;-77
2022/11/04 01:28:43;;;;;;;;;;;;;;;;;;941030;27;20386;-77
2022/11/04 01:29:16;;;;;;;;;;;;;;;;;;941171;27;20213;-78
2022/11/04 01:29:47;;;;;;;;;;;;;;;;;;941151;27;20228;-78
2022/11/04 01:30:20;;;;;;;;;;;;;;;;;;940948;27;19908;-79
2022/11/04 01:30:51;;;;;;;;;;;;;;;;;;941101;27;19918;-78
2022/11/04 01:31:22;;;;;;;;;;;;;;;;;;941112;27;19907;-77
2022/11/04 01:31:56;;;;;;;;;;;;;;;;;;940968;27;20190;-77
2022/11/04 01:32:27;;;;;;;;;;;;;;;;;;941048;27;19903;-81
2022/11/04 01:32:57;;;;;;;;;;;;;;;;;;941188;27;19922;-77
2022/11/04 01:33:30;;;;;;;;;;;;;;;;;;941130;27;20195;-77
2022/11/04 01:34:01;;;;;;;;;;;;;;;;;;941206;27;20196;-77
2022/11/04 01:34:34;;;;;;;;;;;;;;;;;;941071;27;19907;-78
2022/11/04 01:35:06;;;;;;;;;;;;;;;;;;941206;27;19918;-78
2022/11/04 01:35:36;;;;;;;;;;;;;;;;;;940848;27;19904;-78
2022/11/04 01:36:11;;;;;;;;;;;;;;;;;;941159;27;19956;-77
2022/11/04 01:36:41;;;;;;;;;;;;;;;;;;941099;27;19950;-77
2022/11/04 01:37:15;;;;;;;;;;;;;;;;;;941195;27;19907;-77
2022/11/04 01:37:45;;;;;;;;;;;;;;;;;;940990;27;19908;-77
2022/11/04 01:38:19;;;;;;;;;;;;;;;;;;941057;27;19907;-77
2022/11/04 01:38:52;;;;;;;;;;;;;;;;;;941115;27;19912;-78
2022/11/04 01:39:23;;;;;;;;;;;;;;;;;;941258;27;20212;-77
2022/11/04 01:39:54;;;;;;;;;;;;;;;;;;941208;27;20423;-76
2022/11/04 01:40:27;;;;;;;;;;;;;;;;;;941217;27;19908;-76
2022/11/04 01:40:58;;;;;;;;;;;;;;;;;;941181;27;19908;-77
2022/11/04 01:41:30;;;;;;;;;;;;;;;;;;941080;27;19908;-77
2022/11/04 01:42:03;;;;;;;;;;;;;;;;;;941131;27;19911;-77
2022/11/04 01:42:34;;;;;;;;;;;;;;;;;;940860;27;20283;-78
2022/11/04 01:43:09;;;;;;;;;;;;;;;;;;941331;27;19908;-77
2022/11/04 01:43:44;;;;;;;;;;;;;;;;;;940954;27;19923;-76
2022/11/04 01:44:32;;;;;;;;;;;;;;;;;;941174;27;19907;-77
2022/11/04 01:45:04;;;;;;;;;;;;;;;;;;940968;27;19903;-77
2022/11/04 01:45:37;;;;;;;;;;;;;;;;;;941262;27;19907;-77
2022/11/04 01:46:09;;;;;;;;;;;;;;;;;;941099;27;19926;-78
2022/11/04 01:46:42;;;;;;;;;;;;;;;;;;940984;27;19983;-77
2022/11/04 01:47:15;;;;;;;;;;;;;;;;;;941085;27;19915;-77
2022/11/04 01:47:51;;;;;;;;;;;;;;;;;;940906;27;19963;-78
2022/11/04 01:48:24;;;;;;;;;;;;;;;;;;940983;27;19915;-78
2022/11/04 01:48:57;;;;;;;;;;;;;;;;;;940995;27;19957;-78
2022/11/04 01:49:32;;;;;;;;;;;;;;;;;;941210;27;19907;-77
2022/11/04 01:50:06;;;;;;;;;;;;;;;;;;941205;27;19907;-77
2022/11/04 01:50:36;;;;;;;;;;;;;;;;;;941011;27;19942;-76
2022/11/04 01:51:10;;;;;;;;;;;;;;;;;;941449;27;19995;-78
2022/11/04 01:51:41;;;;;;;;;;;;;;;;;;941118;27;19915;-77
2022/11/04 01:52:13;;;;;;;;;;;;;;;;;;941166;27;20147;-77
2022/11/04 01:52:50;;;;;;;;;;;;;;;;;;940738;27;19968;-76
2022/11/04 01:53:27;;;;;;;;;;;;;;;;;;941367;27;19907;-78
2022/11/04 01:53:57;;;;;;;;;;;;;;;;;;941047;27;19914;-76
2022/11/04 01:54:31;;;;;;;;;;;;;;;;;;941222;27;19922;-77
2022/11/04 01:55:04;;;;;;;;;;;;;;;;;;941203;27;20151;-77
2022/11/04 01:55:42;;;;;;;;;;;;;;;;;;941480;27;19903;-77
2022/11/04 01:56:13;;;;;;;;;;;;;;;;;;941128;27;19928;-76
2022/11/04 01:56:45;;;;;;;;;;;;;;;;;;940438;27;19930;-76
2022/11/04 01:57:20;;;;;;;;;;;;;;;;;;940458;27;19916;-76
2022/11/04 01:57:53;;;;;;;;;;;;;;;;;;940835;27;19915;-77
2022/11/04 01:58:25;;;;;;;;;;;;;;;;;;941059;27;19967;-78
2022/11/04 01:59:03;;;;;;;;;;;;;;;;;;941037;27;20174;-78
2022/11/04 01:59:35;;;;;;;;;;;;;;;;;;941134;27;19919;-78
2022/11/04 02:00:07;;;;;;;;;;;;;;;;;;941058;27;20117;-76
2022/11/04 02:00:42;;;;;;;;;;;;;;;;;;941172;27;19915;-78
2022/11/04 02:01:12;;;;;;;;;;;;;;;;;;941176;27;19907;-80
2022/11/04 02:01:43;;;;;;;;;;;;;;;;;;941045;27;20147;-78
2022/11/04 02:02:14;;;;;;;;;;;;;;;;;;941118;27;19966;-78
2022/11/04 02:02:55;;;;;;;;;;;;;;;;;;941343;27;20285;-77
2022/11/04 02:03:29;;;;;;;;;;;;;;;;;;941031;27;20244;-76
2022/11/04 02:04:24;;;;;;;;;;;;;;;;;;941063;27;19946;-78
2022/11/04 02:04:51;;;;;;;;;;;;;;;;;;940867;27;19904;-76
2022/11/04 02:05:24;;;;;;;;;;;;;;;;;;941106;27;19907;-76
2022/11/04 02:05:55;;;;;;;;;;;;;;;;;;941021;27;19907;-76
2022/11/04 02:06:26;;;;;;;;;;;;;;;;;;940904;27;19930;-78
2022/11/04 02:06:58;;;;;;;;;;;;;;;;;;940973;27;20212;-77
2022/11/04 02:07:32;;;;;;;;;;;;;;;;;;940978;27;19907;-76
2022/11/04 02:08:04;;;;;;;;;;;;;;;;;;940875;27;19923;-77
2022/11/04 02:08:38;;;;;;;;;;;;;;;;;;941033;27;19919;-76
2022/11/04 02:09:09;;;;;;;;;;;;;;;;;;940924;27;20284;-76
2022/11/04 02:09:43;;;;;;;;;;;;;;;;;;940946;27;19960;-80
2022/11/04 02:10:14;;;;;;;;;;;;;;;;;;940725;27;19994;-78
2022/11/04 02:10:48;;;;;;;;;;;;;;;;;;941039;27;19960;-77
2022/11/04 02:12:50;;;;;;;;;;;;;;;;;;941137;27;19903;-76
2022/11/04 02:13:24;;;;;;;;;;;;;;;;;;941166;27;19907;-77
2022/11/04 02:13:54;;;;;;;;;;;;;;;;;;941050;27;20140;-76
2022/11/04 02:14:25;;;;;;;;;;;;;;;;;;941109;27;19904;-76
2022/11/04 02:14:57;;;;;;;;;;;;;;;;;;941269;27;19943;-78
2022/11/04 02:15:37;;;;;;;;;;;;;;;;;;940997;27;19903;-76
2022/11/04 02:16:10;;;;;;;;;;;;;;;;;;940829;27;19907;-77
2022/11/04 02:16:43;;;;;;;;;;;;;;;;;;941057;27;20410;-77
2022/11/04 02:17:23;;;;;;;;;;;;;;;;;;941024;27;19919;-76
2022/11/04 02:18:00;;;;;;;;;;;;;;;;;;941224;27;19907;-77
2022/11/04 02:18:49;;;;;;;;;;;;;;;;;;941055;27;20205;-78
2022/11/04 02:19:37;;;;;;;;;;;;;;;;;;941098;27;19907;-78
2022/11/04 02:20:17;;;;;;;;;;;;;;;;;;940999;27;19918;-77
2022/11/04 02:21:07;;;;;;;;;;;;;;;;;;941041;27;20204;-77
2022/11/04 02:21:56;;;;;;;;;;;;;;;;;;941066;27;19908;-77
2022/11/04 02:22:50;;;;;;;;;;;;;;;;;;941090;27;19915;-77
2022/11/04 02:23:30;;;;;;;;;;;;;;;;;;940206;27;19934;-78
2022/11/04 02:24:13;;;;;;;;;;;;;;;;;;940326;27;19975;-78
2022/11/04 02:25:03;;;;;;;;;;;;;;;;;;941095;27;19956;-79
2022/11/04 02:25:53;;;;;;;;;;;;;;;;;;941066;27;20159;-77
2022/11/04 02:26:39;;;;;;;;;;;;;;;;;;941274;27;19930;-79
2022/11/04 02:27:20;;;;;;;;;;;;;;;;;;941414;27;19922;-76
2022/11/04 02:28:07;;;;;;;;;;;;;;;;;;941145;27;20243;-77
2022/11/04 02:28:49;;;;;;;;;;;;;;;;;;941025;27;19907;-76
2022/11/04 02:29:31;;;;;;;;;;;;;;;;;;940873;27;19912;-75
2022/11/04 02:30:06;;;;;;;;;;;;;;;;;;940975;27;20161;-76
2022/11/04 02:30:40;;;;;;;;;;;;;;;;;;940840;27;19919;-77
2022/11/04 02:31:16;;;;;;;;;;;;;;;;;;940911;27;19903;-78
2022/11/04 02:31:52;;;;;;;;;;;;;;;;;;940817;27;20401;-76
2022/11/04 02:32:26;;;;;;;;;;;;;;;;;;940833;27;19907;-76
2022/11/04 02:33:14;;;;;;;;;;;;;;;;;;941085;27;19927;-76
2022/11/04 02:33:50;;;;;;;;;;;;;;;;;;940916;27;19907;-76
2022/11/04 02:34:23;;;;;;;;;;;;;;;;;;940892;27;20263;-76
2022/11/04 02:35:00;;;;;;;;;;;;;;;;;;940839;27;19908;-76
2022/11/04 02:35:39;;;;;;;;;;;;;;;;;;940937;27;19908;-78
2022/11/04 02:36:18;;;;;;;;;;;;;;;;;;940808;27;19915;-76
2022/11/04 02:36:54;;;;;;;;;;;;;;;;;;940839;27;19911;-77
2022/11/04 02:37:35;;;;;;;;;;;;;;;;;;940745;27;19917;-76
2022/11/04 02:38:09;;;;;;;;;;;;;;;;;;940796;27;19919;-76
2022/11/04 02:38:50;;;;;;;;;;;;;;;;;;940925;27;19904;-77
2022/11/04 02:39:30;;;;;;;;;;;;;;;;;;940767;27;19907;-77
2022/11/04 02:40:07;;;;;;;;;;;;;;;;;;940953;27;19908;-77
2022/11/04 02:40:43;;;;;;;;;;;;;;;;;;940721;27;19919;-76
2022/11/04 02:41:16;;;;;;;;;;;;;;;;;;940803;27;20151;-76
2022/11/04 02:41:52;;;;;;;;;;;;;;;;;;940800;27;19922;-78
2022/11/04 02:42:31;;;;;;;;;;;;;;;;;;940868;27;19915;-76
2022/11/04 02:43:04;;;;;;;;;;;;;;;;;;940668;27;19907;-75
2022/11/04 02:43:40;;;;;;;;;;;;;;;;;;940877;27;19960;-78
2022/11/04 02:44:17;;;;;;;;;;;;;;;;;;940829;27;19907;-77
2022/11/04 02:44:55;;;;;;;;;;;;;;;;;;940714;27;19908;-76
2022/11/04 02:45:29;;;;;;;;;;;;;;;;;;940828;27;20147;-76
2022/11/04 02:46:04;;;;;;;;;;;;;;;;;;940837;27;19916;-76
2022/11/04 02:46:36;;;;;;;;;;;;;;;;;;940624;27;19907;-76
2022/11/04 02:47:10;;;;;;;;;;;;;;;;;;940889;27;19903;-77
2022/11/04 02:47:46;;;;;;;;;;;;;;;;;;940681;27;20148;-77
2022/11/04 02:48:19;;;;;;;;;;;;;;;;;;940784;27;20139;-78
2022/11/04 02:48:54;;;;;;;;;;;;;;;;;;940855;27;19911;-76
2022/11/04 02:49:29;;;;;;;;;;;;;;;;;;940757;27;19907;-74
2022/11/04 02:50:03;;;;;;;;;;;;;;;;;;940814;27;19907;-77
2022/11/04 02:50:42;;;;;;;;;;;;;;;;;;940724;27;19915;-75
2022/11/04 02:51:17;;;;;;;;;;;;;;;;;;940986;27;19907;-77
2022/11/04 02:51:50;;;;;;;;;;;;;;;;;;940838;27;20280;-77
2022/11/04 02:52:27;;;;;;;;;;;;;;;;;;940727;27;19918;-76
2022/11/04 02:53:00;;;;;;;;;;;;;;;;;;940426;27;19908;-76
2022/11/04 02:53:36;;;;;;;;;;;;;;;;;;940823;27;19907;-77
2022/11/04 02:54:12;;;;;;;;;;;;;;;;;;940886;27;19908;-76
2022/11/04 02:54:46;;;;;;;;;;;;;;;;;;940692;27;19911;-74
2022/11/04 02:55:19;;;;;;;;;;;;;;;;;;940966;27;19919;-76
2022/11/04 02:55:55;;;;;;;;;;;;;;;;;;940689;27;19907;-75
2022/11/04 02:56:27;;;;;;;;;;;;;;;;;;940849;27;19914;-77
2022/11/04 02:57:00;;;;;;;;;;;;;;;;;;940703;27;19907;-76
2022/11/04 02:57:36;;;;;;;;;;;;;;;;;;940804;27;20174;-75
2022/11/04 02:58:10;;;;;;;;;;;;;;;;;;940847;27;20216;-78
2022/11/04 02:58:42;;;;;;;;;;;;;;;;;;940679;27;19903;-76
2022/11/04 02:59:17;;;;;;;;;;;;;;;;;;940852;27;19964;-76
2022/11/04 02:59:53;;;;;;;;;;;;;;;;;;940825;27;20332;-77
2022/11/04 03:00:24;;;;;;;;;;;;;;;;;;940763;27;19915;-77
2022/11/04 03:00:59;;;;;;;;;;;;;;;;;;940612;27;19908;-75
2022/11/04 03:01:32;;;;;;;;;;;;;;;;;;940727;27;20240;-76
2022/11/04 03:02:04;;;;;;;;;;;;;;;;;;940755;27;19919;-76
2022/11/04 03:02:41;;;;;;;;;;;;;;;;;;940819;27;19927;-75
2022/11/04 03:03:14;;;;;;;;;;;;;;;;;;940780;27;19908;-76
2022/11/04 03:03:47;;;;;;;;;;;;;;;;;;940724;27;19925;-78
2022/11/04 03:04:23;;;;;;;;;;;;;;;;;;940714;27;19907;-75
2022/11/04 03:04:54;;;;;;;;;;;;;;;;;;940852;27;19907;-75
2022/11/04 03:05:27;;;;;;;;;;;;;;;;;;940937;27;20144;-77
2022/11/04 03:06:02;;;;;;;;;;;;;;;;;;940818;27;19923;-75
2022/11/04 03:06:34;;;;;;;;;;;;;;;;;;940697;27;19914;-77
2022/11/04 03:07:08;;;;;;;;;;;;;;;;;;940620;27;19912;-77
2022/11/04 03:07:43;;;;;;;;;;;;;;;;;;940810;27;19916;-76
2022/11/04 03:08:16;;;;;;;;;;;;;;;;;;940825;27;19970;-74
2022/11/04 03:08:48;;;;;;;;;;;;;;;;;;941239;27;20012;-78
2022/11/04 03:09:23;;;;;;;;;;;;;;;;;;941084;27;19959;-76
2022/11/04 03:09:58;;;;;;;;;;;;;;;;;;941134;27;20121;-76
2022/11/04 03:10:31;;;;;;;;;;;;;;;;;;941110;27;19912;-79
2022/11/04 03:11:08;;;;;;;;;;;;;;;;;;941079;27;19911;-74
2022/11/04 03:11:41;;;;;;;;;;;;;;;;;;941187;27;20345;-76
2022/11/04 03:12:14;;;;;;;;;;;;;;;;;;941468;27;19915;-76
2022/11/04 03:12:51;;;;;;;;;;;;;;;;;;941639;27;19926;-79
2022/11/04 03:13:23;;;;;;;;;;;;;;;;;;941648;27;19924;-78
2022/11/04 03:13:57;;;;;;;;;;;;;;;;;;941603;27;19908;-78
2022/11/04 03:14:34;;;;;;;;;;;;;;;;;;941603;27;19914;-78
2022/11/04 03:15:11;;;;;;;;;;;;;;;;;;941479;27;19907;-77
2022/11/04 03:15:47;;;;;;;;;;;;;;;;;;941474;27;19907;-77
2022/11/04 03:16:22;;;;;;;;;;;;;;;;;;941422;27;20186;-77
2022/11/04 03:16:56;;;;;;;;;;;;;;;;;;941302;27;19914;-76
2022/11/04 03:17:30;;;;;;;;;;;;;;;;;;941450;27;19974;-78
2022/11/04 03:18:08;;;;;;;;;;;;;;;;;;941458;27;19918;-77
2022/11/04 03:18:42;;;;;;;;;;;;;;;;;;941482;27;19915;-78
2022/11/04 03:19:15;;;;;;;;;;;;;;;;;;941391;27;19915;-77
2022/11/04 03:19:52;;;;;;;;;;;;;;;;;;941465;27;19911;-77
2022/11/04 03:20:26;;;;;;;;;;;;;;;;;;941311;27;19956;-78
2022/11/04 03:21:00;;;;;;;;;;;;;;;;;;941326;27;19965;-79
2022/11/04 03:21:35;;;;;;;;;;;;;;;;;;941568;27;19956;-76
2022/11/04 03:22:09;;;;;;;;;;;;;;;;;;941588;27;19919;-76
2022/11/04 03:22:39;;;;;;;;;;;;;;;;;;941404;27;19915;-75
2022/11/04 03:23:10;;;;;;;;;;;;;;;;;;941468;27;20212;-75
2022/11/04 03:23:44;;;;;;;;;;;;;;;;;;941511;27;19915;-76
2022/11/04 03:24:15;;;;;;;;;;;;;;;;;;941236;27;19918;-75
2022/11/04 03:24:46;;;;;;;;;;;;;;;;;;941414;27;20174;-78
2022/11/04 03:25:20;;;;;;;;;;;;;;;;;;941264;27;20173;-78
2022/11/04 03:25:54;;;;;;;;;;;;;;;;;;941300;27;20019;-77
2022/11/04 03:26:29;;;;;;;;;;;;;;;;;;941371;27;19915;-76
2022/11/04 03:27:04;;;;;;;;;;;;;;;;;;941303;27;19903;-77
2022/11/04 03:27:42;;;;;;;;;;;;;;;;;;941385;27;19918;-77
2022/11/04 03:28:19;;;;;;;;;;;;;;;;;;941218;27;20262;-75
2022/11/04 03:28:59;;;;;;;;;;;;;;;;;;941301;27;19904;-76
2022/11/04 03:29:31;;;;;;;;;;;;;;;;;;941109;27;19904;-77
2022/11/04 03:30:04;;;;;;;;;;;;;;;;;;941229;27;19907;-76
2022/11/04 03:30:44;;;;;;;;;;;;;;;;;;941026;27;19911;-75
2022/11/04 03:31:19;;;;;;;;;;;;;;;;;;941371;27;20548;-78
2022/11/04 03:31:57;;;;;;;;;;;;;;;;;;941396;27;19915;-77
2022/11/04 03:32:36;;;;;;;;;;;;;;;;;;941239;27;19923;-77
2022/11/04 03:33:11;;;;;;;;;;;;;;;;;;941286;27;19911;-76
2022/11/04 03:33:45;;;;;;;;;;;;;;;;;;941294;27;19907;-77
2022/11/04 03:34:18;;;;;;;;;;;;;;;;;;941371;27;19907;-75
2022/11/04 03:34:49;;;;;;;;;;;;;;;;;;941191;27;19907;-76
2022/11/04 03:35:20;;;;;;;;;;;;;;;;;;941164;27;19953;-76
2022/11/04 03:35:53;;;;;;;;;;;;;;;;;;941240;27;19959;-77
2022/11/04 03:36:24;;;;;;;;;;;;;;;;;;941001;27;20205;-77
2022/11/04 03:36:55;;;;;;;;;;;;;;;;;;941155;27;20229;-77
2022/11/04 03:37:29;;;;;;;;;;;;;;;;;;941151;27;19915;-76
2022/11/04 03:37:59;;;;;;;;;;;;;;;;;;941187;27;20147;-75
2022/11/04 03:38:30;;;;;;;;;;;;;;;;;;941233;27;19907;-75
2022/11/04 03:39:03;;;;;;;;;;;;;;;;;;941303;27;20117;-78
2022/11/04 03:39:34;;;;;;;;;;;;;;;;;;941150;27;19908;-75
2022/11/04 03:40:06;;;;;;;;;;;;;;;;;;941495;27;19911;-77
2022/11/04 03:40:37;;;;;;;;;;;;;;;;;;941529;27;19967;-78
2022/11/04 03:41:14;;;;;;;;;;;;;;;;;;941663;27;19966;-77
2022/11/04 03:41:47;;;;;;;;;;;;;;;;;;941295;27;20155;-78
2022/11/04 03:42:19;;;;;;;;;;;;;;;;;;941504;27;19960;-77
2022/11/04 03:42:55;;;;;;;;;;;;;;;;;;941445;27;19912;-77
2022/11/04 03:43:27;;;;;;;;;;;;;;;;;;941611;27;19918;-78
2022/11/04 03:43:58;;;;;;;;;;;;;;;;;;941549;27;20208;-78
2022/11/04 03:44:31;;;;;;;;;;;;;;;;;;941398;27;19960;-79
2022/11/04 03:45:03;;;;;;;;;;;;;;;;;;941577;27;19907;-78
2022/11/04 03:45:33;;;;;;;;;;;;;;;;;;941459;27;20217;-78
2022/11/04 03:46:09;;;;;;;;;;;;;;;;;;941526;27;19903;-77
2022/11/04 03:46:40;;;;;;;;;;;;;;;;;;941483;27;19919;-77
2022/11/04 03:47:11;;;;;;;;;;;;;;;;;;941537;27;19918;-77
2022/11/04 03:47:44;;;;;;;;;;;;;;;;;;941421;27;19915;-78
2022/11/04 03:48:15;;;;;;;;;;;;;;;;;;941448;27;19907;-77
2022/11/04 03:48:47;;;;;;;;;;;;;;;;;;941511;27;19911;-77
2022/11/04 03:49:21;;;;;;;;;;;;;;;;;;941456;27;20220;-78
2022/11/04 03:49:58;;;;;;;;;;;;;;;;;;941327;27;19907;-78
2022/11/04 03:50:29;;;;;;;;;;;;;;;;;;941422;27;20187;-77
2022/11/04 03:51:03;;;;;;;;;;;;;;;;;;941458;27;19908;-81
2022/11/04 03:51:33;;;;;;;;;;;;;;;;;;941165;27;19907;-77
2022/11/04 03:52:04;;;;;;;;;;;;;;;;;;941216;27;19960;-77
2022/11/04 03:52:38;;;;;;;;;;;;;;;;;;941221;27;19921;-76
2022/11/04 03:53:10;;;;;;;;;;;;;;;;;;941392;27;19954;-77
2022/11/04 03:53:44;;;;;;;;;;;;;;;;;;941295;27;19903;-79
2022/11/04 03:54:16;;;;;;;;;;;;;;;;;;941330;27;19908;-77
2022/11/04 03:54:46;;;;;;;;;;;;;;;;;;941316;27;19907;-77
2022/11/04 03:55:17;;;;;;;;;;;;;;;;;;941284;27;20210;-77
2022/11/04 03:55:57;;;;;;;;;;;;;;;;;;941190;27;20239;-77
2022/11/04 03:56:47;;;;;;;;;;;;;;;;;;941310;27;20160;-78
2022/11/04 03:57:30;;;;;;;;;;;;;;;;;;941331;27;19903;-78
2022/11/04 03:58:03;;;;;;;;;;;;;;;;;;941138;27;20365;-76
2022/11/04 03:58:40;;;;;;;;;;;;;;;;;;941387;27;20280;-77
2022/11/04 03:59:17;;;;;;;;;;;;;;;;;;941300;27;19926;-77
2022/11/04 04:00:00;;;;;;;;;;;;;;;;;;941231;27;19926;-77
2022/11/04 04:00:35;;;;;;;;;;;;;;;;;;941359;27;19908;-77
2022/11/04 04:01:12;;;;;;;;;;;;;;;;;;941257;27;20171;-78
2022/11/04 04:01:50;;;;;;;;;;;;;;;;;;941515;27;19953;-78
2022/11/04 04:02:26;;;;;;;;;;;;;;;;;;941306;27;19907;-78
2022/11/04 04:03:05;;;;;;;;;;;;;;;;;;941177;27;19911;-76
2022/11/04 04:03:42;;;;;;;;;;;;;;;;;;941414;27;19907;-77
2022/11/04 04:04:16;;;;;;;;;;;;;;;;;;941543;27;19918;-78
2022/11/04 04:04:52;;;;;;;;;;;;;;;;;;941504;27;19908;-77
2022/11/04 04:05:28;;;;;;;;;;;;;;;;;;941362;27;20216;-77
2022/11/04 04:06:04;;;;;;;;;;;;;;;;;;941235;27;19953;-78
2022/11/04 04:06:35;;;;;;;;;;;;;;;;;;941489;27;19903;-77
2022/11/04 04:07:13;;;;;;;;;;;;;;;;;;941162;27;20155;-77
2022/11/04 04:07:47;;;;;;;;;;;;;;;;;;941244;27;19911;-76
2022/11/04 04:08:24;;;;;;;;;;;;;;;;;;941293;27;19903;-76
2022/11/04 04:09:00;;;;;;;;;;;;;;;;;;941160;27;19960;-77
2022/11/04 04:09:36;;;;;;;;;;;;;;;;;;941367;27;19907;-77
2022/11/04 04:11:04;;;;;;;;;;;;;;;;;;940861;27;19951;-77
2022/11/04 04:11:40;;;;;;;;;;;;;;;;;;941214;27;19903;-76
2022/11/04 04:12:15;;;;;;;;;;;;;;;;;;941308;27;19915;-75
2022/11/04 04:12:47;;;;;;;;;;;;;;;;;;941352;27;19915;-76
2022/11/04 04:13:24;;;;;;;;;;;;;;;;;;941326;27;19907;-78
2022/11/04 04:14:00;;;;;;;;;;;;;;;;;;941144;27;19911;-78
2022/11/04 04:14:38;;;;;;;;;;;;;;;;;;941291;27;19918;-76